createdAt,value
2018-12-15T00:01:29.860Z,102462.95
2018-12-15T00:03:58.599Z,102456.16
2018-12-15T00:06:27.289Z,102459.53
2018-12-15T00:08:55.280Z,102469.72
2018-12-15T00:11:23.225Z,102474.67
2018-12-15T00:13:51.086Z,102467.29
2018-12-15T00:16:18.966Z,102466.56
2018-12-15T00:18:46.817Z,102465.03
2018-12-15T00:21:14.684Z,102462.86
2018-12-15T00:23:42.900Z,102466.58
2018-12-15T00:26:10.840Z,102465.89
2018-12-15T00:28:38.830Z,102466.56
2018-12-15T00:31:06.797Z,102463.08
2018-12-15T00:33:34.992Z,102467.97
2018-12-15T00:36:02.702Z,102473.02
2018-12-15T00:38:30.567Z,102475.78
2018-12-15T00:40:58.592Z,102479.50
2018-12-15T00:43:26.668Z,102479.77
2018-12-15T00:45:54.590Z,102475.16
2018-12-15T00:48:22.657Z,102482.29
2018-12-15T00:50:50.845Z,102483.89
2018-12-15T00:53:19.051Z,102482.50
2018-12-15T00:55:46.878Z,102482.70
2018-12-15T00:58:14.744Z,102489.78
2018-12-15T01:00:43.777Z,102484.14
2018-12-15T01:03:11.926Z,102489.52
2018-12-15T01:05:40.028Z,102486.38
2018-12-15T01:08:07.931Z,102486.63
2018-12-15T01:10:35.822Z,102486.89
2018-12-15T01:13:04.112Z,102489.72
2018-12-15T01:15:46.627Z,102481.37
2018-12-15T01:18:14.795Z,102485.83
2018-12-15T01:20:42.960Z,102477.09
2018-12-15T01:23:11.254Z,102475.93
2018-12-15T01:25:39.415Z,102478.14
2018-12-15T01:28:07.406Z,102481.41
2018-12-15T01:30:35.221Z,102483.21
2018-12-15T01:33:03.213Z,102481.69
2018-12-15T01:35:31.304Z,102482.72
2018-12-15T01:37:59.243Z,102487.47
2018-12-15T01:40:27.105Z,102488.91
2018-12-15T01:42:55.100Z,102493.97
2018-12-15T01:45:23.298Z,102491.40
2018-12-15T01:47:51.366Z,102485.32
2018-12-15T01:50:19.297Z,102492.41
2018-12-15T01:52:47.405Z,102481.56
2018-12-15T01:55:15.445Z,102486.12
2018-12-15T01:57:43.645Z,102486.14
2018-12-15T02:00:13.464Z,102489.34
2018-12-15T02:02:41.427Z,102484.13
2018-12-15T02:05:09.366Z,102483.77
2018-12-15T02:07:37.332Z,102481.52
2018-12-15T02:10:06.472Z,102477.18
2018-12-15T02:12:35.371Z,102480.06
2018-12-15T02:15:03.728Z,102489.72
2018-12-15T02:17:33.781Z,102489.16
2018-12-15T02:20:02.025Z,102484.49
2018-12-15T02:22:30.076Z,102487.81
2018-12-15T02:24:58.215Z,102491.06
2018-12-15T02:27:26.081Z,102487.27
2018-12-15T02:29:54.072Z,102487.19
2018-12-15T02:32:22.383Z,102482.81
2018-12-15T02:34:50.249Z,102489.42
2018-12-15T02:37:18.319Z,102485.00
2018-12-15T02:39:46.360Z,102484.28
2018-12-15T02:42:14.325Z,102485.24
2018-12-15T02:44:42.190Z,102487.05
2018-12-15T02:47:10.056Z,102482.62
2018-12-15T02:49:37.923Z,102488.20
2018-12-15T02:52:05.838Z,102469.81
2018-12-15T02:54:33.853Z,102483.90
2018-12-15T02:57:01.744Z,102486.17
2018-12-15T02:59:30.142Z,102476.64
2018-12-15T03:01:58.201Z,102482.59
2018-12-15T03:04:26.285Z,102476.64
2018-12-15T03:06:54.131Z,102486.72
2018-12-15T03:09:22.072Z,102486.68
2018-12-15T03:11:50.099Z,102488.66
2018-12-15T03:14:18.004Z,102487.10
2018-12-15T03:17:07.121Z,102492.28
2018-12-15T03:19:35.162Z,102497.44
2018-12-15T03:22:03.132Z,102495.96
2018-12-15T03:24:31.314Z,102494.31
2018-12-15T03:26:59.405Z,102494.48
2018-12-15T03:29:27.491Z,102498.40
2018-12-15T03:31:55.414Z,102501.06
2018-12-15T03:34:23.340Z,102498.81
2018-12-15T03:36:51.472Z,102498.33
2018-12-15T03:39:19.410Z,102506.20
2018-12-15T03:41:47.553Z,102499.11
2018-12-15T03:44:15.701Z,102498.84
2018-12-15T03:46:43.756Z,102504.08
2018-12-15T03:49:11.843Z,102501.45
2018-12-15T03:51:39.913Z,102497.81
2018-12-15T03:54:07.828Z,102498.35
2018-12-15T03:56:35.827Z,102482.55
2018-12-15T03:59:04.110Z,102498.89
2018-12-15T04:01:32.272Z,102499.08
2018-12-15T04:04:00.090Z,102498.80
2018-12-15T04:06:28.007Z,102494.57
2018-12-15T04:08:55.971Z,102497.27
2018-12-15T04:11:24.078Z,102487.16
2018-12-15T04:13:52.079Z,102488.16
2018-12-15T04:16:20.004Z,102490.64
2018-12-15T04:18:47.935Z,102493.57
2018-12-15T04:21:15.926Z,102496.91
2018-12-15T04:23:44.691Z,102497.17
2018-12-15T04:26:12.707Z,102500.19
2018-12-15T04:28:40.778Z,102494.94
2018-12-15T04:31:08.814Z,102494.97
2018-12-15T04:33:37.705Z,102498.73
2018-12-15T04:36:11.544Z,102498.53
2018-12-15T04:38:39.584Z,102478.44
2018-12-15T04:41:07.525Z,102495.41
2018-12-15T04:43:35.415Z,102498.05
2018-12-15T04:46:03.256Z,102493.73
2018-12-15T04:48:31.291Z,102497.91
2018-12-15T04:50:59.816Z,102505.03
2018-12-15T04:53:27.804Z,102508.05
2018-12-15T04:55:56.536Z,102494.43
2018-12-15T04:58:24.459Z,102493.41
2018-12-15T05:00:52.463Z,102498.58
2018-12-15T05:03:20.459Z,102503.78
2018-12-15T05:05:48.381Z,102498.80
2018-12-15T05:08:16.477Z,102496.31
2018-12-15T05:10:44.317Z,102490.19
2018-12-15T05:13:12.208Z,102495.83
2018-12-15T05:15:40.245Z,102502.73
2018-12-15T05:18:08.347Z,102500.89
2018-12-15T05:20:36.278Z,102499.55
2018-12-15T05:23:04.267Z,102497.11
2018-12-15T05:25:32.356Z,102500.55
2018-12-15T05:28:00.097Z,102501.63
2018-12-15T05:30:28.089Z,102501.34
2018-12-15T05:32:56.161Z,102500.11
2018-12-15T05:35:24.195Z,102494.57
2018-12-15T05:37:52.160Z,102496.73
2018-12-15T05:40:20.026Z,102494.77
2018-12-15T05:42:48.036Z,102494.19
2018-12-15T05:45:16.082Z,102490.27
2018-12-15T05:47:44.825Z,102508.27
2018-12-15T05:50:13.070Z,102498.29
2018-12-15T05:52:41.055Z,102484.80
2018-12-15T05:55:08.924Z,102503.58
2018-12-15T05:57:36.873Z,102509.78
2018-12-15T06:00:08.017Z,102503.98
2018-12-15T06:02:36.292Z,102504.78
2018-12-15T06:05:05.159Z,102505.38
2018-12-15T06:07:33.099Z,102506.09
2018-12-15T06:10:01.314Z,102512.10
2018-12-15T06:12:29.254Z,102511.06
2018-12-15T06:14:57.121Z,102512.42
2018-12-15T06:17:25.111Z,102516.59
2018-12-15T06:19:53.202Z,102517.47
2018-12-15T06:22:21.244Z,102514.11
2018-12-15T06:24:49.310Z,102514.28
2018-12-15T06:27:17.274Z,102519.22
2018-12-15T06:29:45.265Z,102516.72
2018-12-15T06:32:14.386Z,102526.88
2018-12-15T06:34:42.431Z,102525.18
2018-12-15T06:37:10.912Z,102526.20
2018-12-15T06:39:38.852Z,102533.52
2018-12-15T06:42:06.970Z,102525.46
2018-12-15T06:44:35.033Z,102523.34
2018-12-15T06:47:02.974Z,102528.08
2018-12-15T06:49:31.187Z,102522.89
2018-12-15T06:51:58.930Z,102526.70
2018-12-15T06:54:26.896Z,102527.02
2018-12-15T06:56:54.966Z,102525.09
2018-12-15T06:59:23.058Z,102529.42
2018-12-15T07:01:50.768Z,102529.94
2018-12-15T07:04:18.791Z,102524.11
2018-12-15T07:06:46.724Z,102530.14
2018-12-15T07:09:14.640Z,102528.07
2018-12-15T07:11:42.492Z,102533.19
2018-12-15T07:14:10.671Z,102540.27
2018-12-15T07:16:38.712Z,102533.08
2018-12-15T07:19:06.653Z,102540.03
2018-12-15T07:21:34.519Z,102541.22
2018-12-15T07:24:02.508Z,102537.41
2018-12-15T07:26:30.613Z,102535.64
2018-12-15T07:28:58.889Z,102539.83
2018-12-15T07:31:26.930Z,102546.20
2018-12-15T07:33:55.021Z,102541.11
2018-12-15T07:36:22.962Z,102541.55
2018-12-15T07:38:50.827Z,102543.66
2018-12-15T07:41:19.044Z,102541.34
2018-12-15T07:43:47.083Z,102535.31
2018-12-15T07:46:15.250Z,102541.18
2018-12-15T07:48:43.219Z,102542.30
2018-12-15T07:51:11.121Z,102546.06
2018-12-15T07:53:39.089Z,102537.70
2018-12-15T07:56:07.058Z,102541.75
2018-12-15T07:58:35.027Z,102544.50
2018-12-15T08:01:02.744Z,102549.33
2018-12-15T08:03:30.760Z,102544.73
2018-12-15T08:05:58.627Z,102559.53
2018-12-15T08:08:26.570Z,102549.62
2018-12-15T08:11:00.299Z,102552.49
2018-12-15T08:13:29.299Z,102550.14
2018-12-15T08:15:57.600Z,102558.64
2018-12-15T08:18:25.380Z,102557.49
2018-12-15T08:20:53.368Z,102557.29
2018-12-15T08:23:21.464Z,102550.92
2018-12-15T08:25:49.624Z,102553.47
2018-12-15T08:28:17.566Z,102556.33
2018-12-15T08:30:46.188Z,102556.56
2018-12-15T08:33:14.123Z,102550.98
2018-12-15T08:35:42.063Z,102552.53
2018-12-15T08:38:10.209Z,102552.65
2018-12-15T08:40:38.243Z,102547.16
2018-12-15T08:43:06.357Z,102548.84
2018-12-15T08:45:34.400Z,102551.76
2018-12-15T08:48:02.345Z,102551.09
2018-12-15T08:50:30.331Z,102546.14
2018-12-15T08:52:58.622Z,102544.78
2018-12-15T08:55:26.562Z,102547.26
2018-12-15T08:57:54.778Z,102550.52
2018-12-15T09:00:22.697Z,102550.30
2018-12-15T09:02:50.793Z,102550.77
2018-12-15T09:05:18.791Z,102548.09
2018-12-15T09:07:46.716Z,102552.33
2018-12-15T09:10:14.586Z,102548.22
2018-12-15T09:12:42.571Z,102547.56
2018-12-15T09:15:11.483Z,102549.67
2018-12-15T09:17:40.079Z,102547.22
2018-12-15T09:20:08.239Z,102549.67
2018-12-15T09:22:36.235Z,102548.61
2018-12-15T09:25:04.453Z,102544.22
2018-12-15T09:27:32.365Z,102543.12
2018-12-15T09:30:00.309Z,102541.59
2018-12-15T09:32:28.248Z,102546.41
2018-12-15T09:34:56.112Z,102542.06
2018-12-15T09:37:23.981Z,102532.75
2018-12-15T09:39:51.843Z,102536.17
2018-12-15T09:42:20.063Z,102536.86
2018-12-15T09:44:48.000Z,102540.49
2018-12-15T09:47:16.014Z,102532.75
2018-12-15T09:49:43.931Z,102531.83
2018-12-15T09:52:12.122Z,102530.46
2018-12-15T09:54:40.066Z,102522.30
2018-12-15T09:57:08.153Z,102531.34
2018-12-15T09:59:36.094Z,102528.75
2018-12-15T10:02:04.324Z,102523.43
2018-12-15T10:04:32.328Z,102518.96
2018-12-15T10:07:00.468Z,102517.28
2018-12-15T10:09:31.584Z,102519.55
2018-12-15T10:15:07.860Z,102510.91
2018-12-15T10:17:35.825Z,102512.80
2018-12-15T10:20:05.203Z,102514.58
2018-12-15T10:22:33.337Z,102506.31
2018-12-15T10:25:01.400Z,102502.70
2018-12-15T10:27:29.539Z,102497.08
2018-12-15T10:33:01.507Z,102498.61
2018-12-15T10:35:29.650Z,102490.91
2018-12-15T10:37:57.513Z,102489.16
2018-12-15T10:40:25.675Z,102489.61
2018-12-15T10:42:53.746Z,102487.02
2018-12-15T10:45:21.662Z,102486.19
2018-12-15T10:47:49.889Z,102486.08
2018-12-15T10:50:17.942Z,102482.31
2018-12-15T10:52:46.032Z,102478.57
2018-12-15T10:55:13.903Z,102477.39
2018-12-15T10:57:41.965Z,102476.22
2018-12-15T11:00:12.155Z,102477.70
2018-12-15T11:02:40.284Z,102478.08
2018-12-15T11:05:08.662Z,102477.00
2018-12-15T11:07:36.716Z,102473.09
2018-12-15T11:10:04.988Z,102470.36
2018-12-15T11:12:32.708Z,102473.63
2018-12-15T11:15:00.826Z,102472.56
2018-12-15T11:17:28.689Z,102465.81
2018-12-15T11:19:56.630Z,102461.22
2018-12-15T11:22:24.730Z,102456.03
2018-12-15T11:24:52.787Z,102452.02
2018-12-15T11:27:24.368Z,102460.81
2018-12-15T11:29:52.426Z,102455.14
2018-12-15T11:32:20.484Z,102446.97
2018-12-15T11:34:48.426Z,102448.22
2018-12-15T11:37:16.230Z,102452.00
2018-12-15T11:39:44.256Z,102449.30
2018-12-15T11:42:12.293Z,102449.84
2018-12-15T11:44:40.187Z,102447.92
2018-12-15T11:47:08.003Z,102450.84
2018-12-15T11:49:35.919Z,102446.72
2018-12-15T11:52:03.786Z,102451.73
2018-12-15T11:54:31.901Z,102435.05
2018-12-15T11:56:59.942Z,102436.48
2018-12-15T11:59:27.857Z,102432.25
2018-12-15T12:01:55.797Z,102435.04
2018-12-15T12:04:23.749Z,102425.47
2018-12-15T12:06:51.606Z,102430.03
2018-12-15T12:09:19.622Z,102426.03
2018-12-15T12:11:47.663Z,102429.45
2018-12-15T12:14:15.952Z,102425.84
2018-12-15T12:16:45.471Z,102420.09
2018-12-15T12:19:13.407Z,102417.61
2018-12-15T12:21:41.273Z,102419.66
2018-12-15T12:24:09.140Z,102422.36
2018-12-15T12:26:37.012Z,102416.96
2018-12-15T12:29:05.216Z,102428.06
2018-12-15T12:31:33.236Z,102419.97
2018-12-15T12:34:01.327Z,102414.59
2018-12-15T12:36:29.267Z,102416.09
2018-12-15T12:38:58.368Z,102412.64
2018-12-15T12:41:26.652Z,102416.00
2018-12-15T12:43:54.667Z,102413.30
2018-12-15T12:46:22.840Z,102414.69
2018-12-15T12:48:50.995Z,102405.99
2018-12-15T12:51:19.291Z,102404.53
2018-12-15T12:53:47.328Z,102407.88
2018-12-15T12:56:15.292Z,102403.25
2018-12-15T12:58:43.408Z,102403.68
2018-12-15T13:01:11.348Z,102399.11
2018-12-15T13:03:39.293Z,102391.25
2018-12-15T13:06:07.310Z,102398.67
2018-12-15T13:08:35.382Z,102397.24
2018-12-15T13:11:03.246Z,102394.36
2018-12-15T13:13:31.202Z,102392.61
2018-12-15T13:15:59.391Z,102389.91
2018-12-15T13:18:27.435Z,102389.98
2018-12-15T13:20:55.376Z,102390.61
2018-12-15T13:23:23.241Z,102398.20
2018-12-15T13:25:51.259Z,102377.30
2018-12-15T13:28:19.197Z,102397.37
2018-12-15T13:30:47.306Z,102396.99
2018-12-15T13:33:27.101Z,102393.30
2018-12-15T13:35:55.218Z,102385.38
2018-12-15T13:38:23.159Z,102394.81
2018-12-15T13:40:51.779Z,102390.60
2018-12-15T13:43:19.848Z,102397.37
2018-12-15T13:45:47.832Z,102390.56
2018-12-15T13:48:15.696Z,102398.72
2018-12-15T13:50:43.866Z,102392.17
2018-12-15T13:53:11.829Z,102395.13
2018-12-15T13:55:39.780Z,102394.14
2018-12-15T13:58:07.808Z,102397.62
2018-12-15T14:00:35.941Z,102396.74
2018-12-15T14:03:03.965Z,102397.58
2018-12-15T14:05:32.079Z,102393.70
2018-12-15T14:08:00.821Z,102394.66
2018-12-15T14:10:28.810Z,102400.66
2018-12-15T14:12:56.907Z,102393.27
2018-12-15T14:15:24.649Z,102397.00
2018-12-15T14:17:52.833Z,102397.06
2018-12-15T14:20:20.774Z,102396.41
2018-12-15T14:22:48.640Z,102398.53
2018-12-15T14:25:16.649Z,102394.91
2018-12-15T14:27:44.621Z,102394.62
2018-12-15T14:30:12.563Z,102391.65
2018-12-15T14:32:40.658Z,102396.53
2018-12-15T14:35:08.935Z,102398.16
2018-12-15T14:37:36.909Z,102390.94
2018-12-15T14:40:05.251Z,102389.47
2018-12-15T14:42:33.340Z,102390.94
2018-12-15T14:45:01.283Z,102393.38
2018-12-15T14:47:29.346Z,102388.73
2018-12-15T14:49:57.212Z,102391.23
2018-12-15T14:52:25.429Z,102388.41
2018-12-15T14:54:53.506Z,102381.34
2018-12-15T14:57:25.815Z,102383.64
2018-12-15T14:59:53.925Z,102376.97
2018-12-15T15:02:22.019Z,102381.53
2018-12-15T15:04:50.006Z,102378.25
2018-12-15T15:07:17.872Z,102374.92
2018-12-15T15:09:46.028Z,102373.67
2018-12-15T15:12:14.028Z,102370.34
2018-12-15T15:14:42.469Z,102373.89
2018-12-15T15:17:10.856Z,102369.98
2018-12-15T15:19:38.900Z,102374.36
2018-12-15T15:22:06.999Z,102362.91
2018-12-15T15:24:44.899Z,102366.52
2018-12-15T15:33:43.386Z,102356.57
2018-12-15T15:36:11.376Z,102360.36
2018-12-15T15:38:39.465Z,102359.27
2018-12-15T15:41:07.508Z,102354.38
2018-12-15T15:43:35.609Z,102355.67
2018-12-15T15:46:03.663Z,102352.97
2018-12-15T15:48:31.750Z,102345.70
2018-12-15T15:50:59.770Z,102340.22
2018-12-15T15:53:27.736Z,102338.91
2018-12-15T15:55:55.676Z,102342.86
2018-12-15T15:58:24.142Z,102338.94
2018-12-15T16:00:52.210Z,102343.64
2018-12-15T16:03:20.283Z,102339.08
2018-12-15T16:05:48.293Z,102331.92
2018-12-15T16:08:16.279Z,102338.14
2018-12-15T16:10:44.144Z,102336.27
2018-12-15T16:13:12.012Z,102339.58
2018-12-15T16:15:40.023Z,102333.22
2018-12-15T16:18:07.744Z,102325.73
2018-12-15T16:20:35.755Z,102320.56
2018-12-15T16:23:03.798Z,102327.84
2018-12-15T16:25:31.739Z,102327.88
2018-12-15T16:27:59.680Z,102315.61
2018-12-15T16:30:27.595Z,102314.56
2018-12-15T16:32:55.561Z,102311.87
2018-12-15T16:35:23.703Z,102305.91
2018-12-15T16:37:51.694Z,102307.56
2018-12-15T16:40:19.712Z,102307.14
2018-12-15T16:42:47.749Z,102302.77
2018-12-15T16:45:15.863Z,102303.75
2018-12-15T16:47:43.824Z,102304.61
2018-12-15T16:50:11.771Z,102303.45
2018-12-15T16:52:40.478Z,102301.45
2018-12-15T16:55:08.727Z,102296.95
2018-12-15T16:57:36.685Z,102300.92
2018-12-15T17:00:07.562Z,102297.47
2018-12-15T17:02:35.474Z,102295.19
2018-12-15T17:05:03.890Z,102296.67
2018-12-15T17:07:31.831Z,102292.23
2018-12-15T17:10:00.022Z,102291.80
2018-12-15T17:12:27.963Z,102292.48
2018-12-15T17:14:55.836Z,102290.38
2018-12-15T17:17:23.693Z,102288.31
2018-12-15T17:19:51.587Z,102297.61
2018-12-15T17:22:19.425Z,102283.56
2018-12-15T17:24:47.318Z,102292.13
2018-12-15T17:27:24.808Z,102288.42
2018-12-15T17:29:52.996Z,102285.70
2018-12-15T17:32:20.941Z,102274.37
2018-12-15T17:34:48.955Z,102275.72
2018-12-15T17:37:16.868Z,102273.71
2018-12-15T17:39:44.734Z,102275.92
2018-12-15T17:42:12.949Z,102266.32
2018-12-15T17:44:41.035Z,102268.58
2018-12-15T17:47:08.956Z,102264.71
2018-12-15T17:49:36.956Z,102254.73
2018-12-15T17:52:05.043Z,102258.98
2018-12-15T17:54:33.028Z,102257.52
2018-12-15T17:57:00.944Z,102255.91
2018-12-15T17:59:28.909Z,102254.08
2018-12-15T18:01:56.775Z,102246.31
2018-12-15T18:04:24.766Z,102251.78
2018-12-15T18:06:52.706Z,102251.60
2018-12-15T18:09:20.720Z,102252.23
2018-12-15T18:11:48.462Z,102253.47
2018-12-15T18:14:16.642Z,102248.22
2018-12-15T18:16:44.920Z,102246.63
2018-12-15T18:19:13.215Z,102239.95
2018-12-15T18:21:41.051Z,102241.45
2018-12-15T18:24:08.991Z,102239.55
2018-12-15T18:26:36.982Z,102234.28
2018-12-15T18:29:04.946Z,102232.23
2018-12-15T18:31:32.938Z,102228.96
2018-12-15T18:34:01.028Z,102225.48
2018-12-15T18:36:29.070Z,102221.11
2018-12-15T18:38:57.010Z,102214.68
2018-12-15T18:41:24.901Z,102208.77
2018-12-15T18:43:52.866Z,102216.30
2018-12-15T18:46:20.832Z,102213.89
2018-12-15T18:48:48.697Z,102216.41
2018-12-15T18:51:16.710Z,102208.70
2018-12-15T18:53:44.629Z,102205.42
2018-12-15T18:56:12.620Z,102198.19
2018-12-15T18:58:40.685Z,102189.55
2018-12-15T19:01:08.787Z,102190.37
2018-12-15T19:03:36.719Z,102188.30
2018-12-15T19:06:04.770Z,102178.59
2018-12-15T19:08:33.476Z,102178.34
2018-12-15T19:11:01.464Z,102178.34
2018-12-15T19:13:29.531Z,102176.22
2018-12-15T19:15:57.627Z,102171.41
2018-12-15T19:18:25.611Z,102167.68
2018-12-15T19:20:53.477Z,102164.83
2018-12-15T19:23:21.621Z,102164.72
2018-12-15T19:25:49.909Z,102166.19
2018-12-15T19:28:17.830Z,102160.60
2018-12-15T19:30:45.718Z,102172.42
2018-12-15T19:33:13.904Z,102167.61
2018-12-15T19:35:41.850Z,102157.58
2018-12-15T19:38:09.716Z,102156.88
2018-12-15T19:40:37.577Z,102152.09
2018-12-15T19:43:05.693Z,102156.55
2018-12-15T19:45:33.660Z,102150.56
2018-12-15T19:48:01.938Z,102154.61
2018-12-15T19:50:29.864Z,102148.70
2018-12-15T19:52:57.858Z,102151.84
2018-12-15T19:55:25.796Z,102140.53
2018-12-15T19:57:53.661Z,102142.78
2018-12-15T20:00:21.651Z,102142.31
2018-12-15T20:02:49.718Z,102135.00
2018-12-15T20:05:17.821Z,102129.98
2018-12-15T20:07:45.750Z,102126.00
2018-12-15T20:10:13.656Z,102130.16
2018-12-15T20:12:41.481Z,102127.80
2018-12-15T20:15:09.647Z,102121.55
2018-12-15T20:17:37.769Z,102116.11
2018-12-15T20:20:06.658Z,102111.80
2018-12-15T20:22:34.680Z,102108.86
2018-12-15T20:25:02.784Z,102108.19
2018-12-15T20:27:30.873Z,102106.27
2018-12-15T20:29:58.918Z,102107.41
2018-12-15T20:32:27.132Z,102098.11
2018-12-15T20:34:54.831Z,102097.73
2018-12-15T20:37:22.953Z,102092.34
2018-12-15T20:39:50.716Z,102087.27
2018-12-15T20:42:18.616Z,102087.13
2018-12-15T20:44:46.735Z,102080.96
2018-12-15T20:47:15.002Z,102083.98
2018-12-15T20:49:42.968Z,102078.19
2018-12-15T20:52:10.831Z,102080.81
2018-12-15T20:54:38.747Z,102076.21
2018-12-15T20:57:08.042Z,102076.65
2018-12-15T20:59:36.281Z,102071.87
2018-12-15T21:02:04.151Z,102069.73
2018-12-15T21:04:32.059Z,102064.22
2018-12-15T21:07:00.175Z,102064.42
2018-12-15T21:09:28.141Z,102056.73
2018-12-15T21:11:56.156Z,102058.70
2018-12-15T21:14:24.124Z,102057.32
2018-12-15T21:16:52.094Z,102051.59
2018-12-15T21:19:20.130Z,102046.71
2018-12-15T21:21:49.584Z,102048.17
2018-12-15T21:24:18.134Z,102037.31
2018-12-15T21:26:47.042Z,102044.96
2018-12-15T21:29:15.041Z,102043.33
2018-12-15T21:31:42.957Z,102039.80
2018-12-15T21:34:12.077Z,102046.02
2018-12-15T21:36:40.044Z,102038.36
2018-12-15T21:39:08.129Z,102035.40
2018-12-15T21:41:36.194Z,102029.99
2018-12-15T21:44:04.164Z,102025.61
2018-12-15T21:46:32.100Z,102017.78
2018-12-15T21:48:59.968Z,102015.50
2018-12-15T21:51:28.164Z,102015.28
2018-12-15T21:53:56.172Z,102008.78
2018-12-15T21:56:24.091Z,102007.26
2018-12-15T21:58:52.029Z,101999.07
2018-12-15T22:01:19.896Z,101992.14
2018-12-15T22:03:47.761Z,101994.92
2018-12-15T22:06:15.756Z,101994.67
2018-12-15T22:08:43.716Z,101993.30
2018-12-15T22:11:11.760Z,101988.62
2018-12-15T22:13:39.763Z,101983.11
2018-12-15T22:16:07.838Z,101974.12
2018-12-15T22:18:36.133Z,101985.16
2018-12-15T22:21:04.200Z,101973.33
2018-12-15T22:23:32.210Z,101967.52
2018-12-15T22:26:00.103Z,101960.88
2018-12-15T22:28:28.066Z,101954.02
2018-12-15T22:30:55.932Z,101949.46
2018-12-15T22:33:24.073Z,101946.87
2018-12-15T22:35:51.915Z,101940.85
2018-12-15T22:38:20.084Z,101940.58
2018-12-15T22:40:47.870Z,101931.56
2018-12-15T22:43:16.011Z,101927.75
2018-12-15T22:45:44.175Z,101910.52
2018-12-15T22:48:12.116Z,101920.42
2018-12-15T22:50:40.143Z,101923.56
2018-12-15T22:53:08.206Z,101921.09
2018-12-15T22:55:36.238Z,101929.35
2018-12-15T22:58:04.204Z,101910.98
2018-12-15T23:00:34.644Z,101917.75
2018-12-15T23:03:02.610Z,101902.56
2018-12-15T23:05:30.575Z,101898.14
2018-12-15T23:07:58.642Z,101899.02
2018-12-15T23:10:26.510Z,101894.59
2018-12-15T23:12:54.518Z,101891.00
2018-12-15T23:15:22.587Z,101887.98
2018-12-15T23:17:50.328Z,101887.66
2018-12-15T23:20:18.194Z,101879.00
2018-12-15T23:22:46.161Z,101877.48
2018-12-15T23:25:14.258Z,101873.45
2018-12-15T23:27:42.266Z,101874.36
2018-12-15T23:30:10.400Z,101872.02
2018-12-15T23:32:38.397Z,101863.92
2018-12-15T23:35:06.542Z,101857.41
2018-12-15T23:37:34.528Z,101855.71
2018-12-15T23:40:02.469Z,101853.17
2018-12-15T23:42:30.410Z,101845.53
2018-12-15T23:44:58.400Z,101840.00
2018-12-15T23:47:26.492Z,101838.41
2018-12-15T23:49:54.531Z,101840.41
2018-12-15T23:52:23.454Z,101835.63
2018-12-15T23:54:51.863Z,101837.48
2018-12-15T23:57:19.979Z,101828.55
2018-12-15T23:59:47.919Z,101825.67
